Time;durP1;ratioP1;P1;durP2;ratioP2;P2;SDS_P1;SDS_P2;PMS_P1;PMS_P2;Temp;Humidity;BMP_temperature;BMP_pressure;BME280_temperature;BME280_humidity;BME280_pressure;Samples;Min_cycle;Max_cycle;Signal;HPM_P1;HPM_P2
2023/11/04 00:00:56;;;;;;;4.95;1.40;;;9.60;99.90;;;10.03;62.40;97811.63;5076720;28;20059;-83
2023/11/04 00:03:25;;;;;;;5.75;1.40;;;9.60;99.90;;;10.06;62.38;97809.25;5092992;28;20049;-83
2023/11/04 00:05:54;;;;;;;5.00;1.70;;;9.70;99.90;;;10.06;62.41;97809.25;5076949;28;20102;-83
2023/11/04 00:08:22;;;;;;;7.05;1.80;;;9.70;99.90;;;10.10;62.28;97795.34;5059074;28;20086;-83
2023/11/04 00:10:50;;;;;;;6.45;1.88;;;9.70;99.90;;;10.07;62.12;97794.84;5081531;28;20048;-83
2023/11/04 00:13:18;;;;;;;4.90;1.55;;;9.70;99.90;;;10.05;62.08;97796.19;5083091;28;20047;-83
2023/11/04 00:15:46;;;;;;;5.53;1.50;;;9.70;99.90;;;10.07;62.16;97794.06;5076834;28;20052;-83
2023/11/04 00:18:13;;;;;;;4.40;1.33;;;9.70;99.90;;;10.07;62.28;97786.06;5078206;28;20045;-86
2023/11/04 00:20:41;;;;;;;6.57;1.95;;;9.70;99.90;;;10.09;62.21;97793.78;5083770;28;20564;-83
2023/11/04 00:23:10;;;;;;;6.50;1.70;;;9.70;99.90;;;10.11;62.36;97792.44;5077454;28;20073;-83
2023/11/04 00:25:38;;;;;;;4.03;1.50;;;9.70;99.90;;;10.12;62.16;97785.25;5068084;28;20045;-83
2023/11/04 00:28:06;;;;;;;4.80;1.30;;;9.70;99.90;;;10.03;62.30;97788.47;5079807;28;20481;-82
2023/11/04 00:30:33;;;;;;;5.82;1.55;;;9.70;99.90;;;9.98;62.48;97788.50;5076889;28;20055;-82
2023/11/04 00:33:01;;;;;;;6.40;1.30;;;9.70;99.90;;;9.94;62.42;97782.13;5029872;28;20052;-83
2023/11/04 00:35:29;;;;;;;4.63;1.50;;;9.60;99.90;;;9.98;62.55;97783.16;5062697;28;20045;-83
2023/11/04 00:37:57;;;;;;;4.53;1.52;;;9.70;99.90;;;10.00;62.41;97770.41;5063374;28;20411;-83
2023/11/04 00:40:27;;;;;;;3.33;1.20;;;9.70;99.90;;;9.98;62.78;97779.72;5065241;28;20044;-83
2023/11/04 00:42:54;;;;;;;7.95;1.63;;;9.70;99.90;;;9.95;62.41;97770.41;5099763;28;20041;-83
2023/11/04 00:45:23;;;;;;;5.97;1.45;;;9.70;99.90;;;9.99;63.14;97779.44;5061761;28;20041;-83
2023/11/04 00:47:51;;;;;;;2.92;1.15;;;9.70;99.90;;;10.01;62.91;97766.66;5064116;28;20061;-83
2023/11/04 00:50:18;;;;;;;3.35;1.02;;;9.70;99.90;;;9.97;62.68;97772.81;5047475;28;20053;-83
2023/11/04 00:52:46;;;;;;;3.95;1.30;;;9.70;99.90;;;10.01;62.79;97764.00;5061399;28;20068;-83
2023/11/04 00:55:14;;;;;;;3.17;1.10;;;9.80;99.90;;;10.02;62.67;97770.13;5055370;28;20052;-83
2023/11/04 00:57:43;;;;;;;2.83;1.20;;;9.80;99.90;;;10.05;62.75;97761.56;5095621;28;20047;-83
2023/11/04 01:00:12;;;;;;;2.92;0.90;;;9.80;99.90;;;10.01;62.70;97760.53;5081181;28;20052;-83
2023/11/04 01:02:41;;;;;;;5.68;1.20;;;9.80;99.90;;;9.99;62.69;97766.13;5076389;28;20051;-83
2023/11/04 01:05:11;;;;;;;3.35;1.10;;;9.80;99.90;;;10.01;62.46;97764.00;5080751;28;20106;-83
2023/11/04 01:07:38;;;;;;;4.43;1.00;;;9.80;99.90;;;9.95;62.07;97757.09;5081156;28;20070;-83
2023/11/04 01:10:08;;;;;;;2.53;0.90;;;9.70;99.90;;;9.96;62.54;97761.34;5075645;28;20532;-83
2023/11/04 01:12:35;;;;;;;10.68;1.02;;;9.80;99.90;;;9.96;62.52;97752.56;5059991;28;20090;-83
2023/11/04 01:15:05;;;;;;;2.25;0.80;;;9.80;99.90;;;10.03;62.64;97763.72;5071246;28;20106;-83
2023/11/04 01:17:33;;;;;;;2.92;1.08;;;9.80;99.90;;;10.01;62.42;97755.22;5059193;28;20071;-83
2023/11/04 01:20:00;;;;;;;2.45;0.80;;;9.80;99.90;;;10.02;62.61;97754.94;5073342;28;20033;-83
2023/11/04 01:22:28;;;;;;;4.18;1.10;;;9.80;99.90;;;10.06;62.78;97763.97;5078340;28;20044;-83
2023/11/04 01:24:56;;;;;;;3.78;1.02;;;9.80;99.90;;;10.09;62.72;97746.63;5078993;28;20067;-83
2023/11/04 01:27:25;;;;;;;4.28;1.02;;;9.80;99.90;;;10.13;63.46;97752.22;5061788;28;20109;-83
2023/11/04 01:29:53;;;;;;;3.67;0.90;;;9.80;99.90;;;10.12;62.99;97751.41;5074239;28;20064;-83
2023/11/04 01:32:22;;;;;;;3.75;0.85;;;9.90;99.90;;;10.13;62.70;97752.22;5078725;28;20060;-83
2023/11/04 01:34:50;;;;;;;5.75;1.10;;;9.90;99.90;;;10.03;62.16;97753.84;5059282;28;20047;-82
2023/11/04 01:37:19;;;;;;;2.92;0.90;;;9.90;99.90;;;10.10;62.67;97736.78;5075568;28;20045;-83
2023/11/04 01:39:46;;;;;;;3.28;0.90;;;9.90;99.90;;;10.09;61.81;97740.50;5058736;28;20048;-83
2023/11/04 01:42:14;;;;;;;2.95;0.88;;;9.90;99.90;;;10.03;62.43;97747.72;5059316;28;20048;-82
2023/11/04 01:44:42;;;;;;;5.13;1.00;;;9.80;99.90;;;10.08;62.68;97747.72;5077578;28;20044;-83
2023/11/04 01:47:12;;;;;;;1.75;0.68;;;9.90;99.90;;;10.12;62.85;97739.97;5077943;28;20040;-83
2023/11/04 01:49:41;;;;;;;2.50;0.80;;;9.90;99.90;;;10.14;62.67;97741.28;5074839;28;20064;-83
2023/11/04 01:52:09;;;;;;;2.75;0.88;;;9.90;99.90;;;10.09;62.44;97741.31;5064304;28;20068;-83
2023/11/04 01:54:37;;;;;;;3.35;0.90;;;9.90;99.90;;;10.06;62.57;97741.88;5081777;28;20040;-83
2023/11/04 01:57:06;;;;;;;1.45;0.60;;;9.90;99.90;;;10.03;62.29;97729.09;5083864;28;20040;-83
2023/11/04 01:59:34;;;;;;;2.00;0.73;;;9.80;99.90;;;10.06;62.99;97736.53;5064249;28;20056;-83
2023/11/04 02:02:03;;;;;;;2.42;0.70;;;9.90;99.90;;;9.96;62.54;97736.59;5063077;28;20045;-83
2023/11/04 02:04:30;;;;;;;3.92;0.70;;;9.80;99.90;;;9.87;62.50;97714.28;5062945;28;20118;-83
2023/11/04 02:07:00;;;;;;;3.38;0.70;;;9.80;99.90;;;9.90;63.07;97729.69;5049166;28;20044;-82
2023/11/04 02:09:28;;;;;;;2.63;0.70;;;9.80;99.90;;;9.98;62.71;97723.81;5064034;28;20048;-83
2023/11/04 02:11:56;;;;;;;2.90;0.63;;;9.80;99.90;;;9.96;62.72;97709.97;5013965;28;20045;-83
2023/11/04 02:14:24;;;;;;;2.58;0.70;;;9.80;99.90;;;9.99;62.93;97714.75;5071443;28;20052;-83
2023/11/04 02:16:52;;;;;;;1.98;0.63;;;9.80;99.90;;;9.96;62.31;97712.66;5100365;28;20049;-83
2023/11/04 02:19:37;;;;;;;1.48;0.60;;;9.80;99.90;;;9.93;62.13;97700.66;5122547;27;20384;-83
2023/11/04 02:22:07;;;;;;;1.52;0.70;;;9.80;99.90;;;9.94;63.05;97696.13;5101323;28;20044;-82
2023/11/04 02:24:34;;;;;;;1.23;0.60;;;9.80;99.90;;;9.94;62.75;97704.13;5098314;28;20064;-82
2023/11/04 02:27:02;;;;;;;2.70;0.80;;;9.80;99.90;;;9.95;62.70;97705.69;5100976;28;20044;-82
2023/11/04 02:29:29;;;;;;;2.50;0.90;;;9.80;99.90;;;9.95;63.08;97708.38;5116803;28;20487;-82
2023/11/04 02:31:56;;;;;;;2.13;0.80;;;9.80;99.90;;;9.96;63.18;97694.00;5100181;28;20044;-82
2023/11/04 02:34:24;;;;;;;1.88;0.68;;;9.80;99.90;;;9.91;63.14;97696.69;5062463;28;20048;-82
2023/11/04 02:36:52;;;;;;;3.50;0.93;;;9.80;99.90;;;9.90;63.01;97700.41;5082462;28;20044;-82
2023/11/04 02:39:20;;;;;;;3.00;0.85;;;9.80;99.90;;;9.93;63.10;97702.53;5098048;28;20047;-82
2023/11/04 02:41:48;;;;;;;3.40;1.02;;;9.70;99.90;;;9.93;63.13;97699.88;5090235;28;20044;-82
2023/11/04 02:44:15;;;;;;;2.45;0.80;;;9.70;99.90;;;9.95;63.07;97693.19;5079490;28;20076;-82
2023/11/04 02:46:43;;;;;;;2.15;0.70;;;9.70;99.90;;;9.97;62.96;97696.38;5080098;28;20534;-82
2023/11/04 02:49:10;;;;;;;1.65;0.60;;;9.70;99.90;;;9.90;62.51;97695.88;5089351;28;20041;-82
2023/11/04 02:51:38;;;;;;;2.72;0.70;;;9.70;99.90;;;9.84;63.11;97690.88;5096863;28;20036;-82
2023/11/04 02:54:06;;;;;;;2.22;0.70;;;9.70;99.90;;;9.87;63.02;97695.66;5078590;28;20048;-82
2023/11/04 02:56:35;;;;;;;2.22;0.70;;;9.70;99.90;;;9.91;63.04;97691.38;5076431;28;20411;-82
2023/11/04 02:59:03;;;;;;;1.88;0.70;;;9.80;99.90;;;9.83;63.00;97682.09;5094027;28;20040;-82
2023/11/04 03:01:30;;;;;;;1.67;0.70;;;9.80;99.90;;;9.89;62.70;97694.28;5095787;28;20071;-83
2023/11/04 03:04:01;;;;;;;1.20;0.63;;;9.80;99.90;;;9.87;62.73;97677.81;5057778;28;20052;-83
2023/11/04 03:06:29;;;;;;;3.27;0.97;;;9.80;99.90;;;9.94;62.90;97682.81;5025435;28;20103;-83
2023/11/04 03:08:57;;;;;;;1.55;0.70;;;9.80;99.90;;;9.90;62.89;97684.44;5024261;28;20053;-83
2023/11/04 03:11:24;;;;;;;1.75;0.70;;;9.80;99.90;;;9.99;63.26;97682.78;5057088;28;20045;-83
2023/11/04 03:13:54;;;;;;;2.42;0.80;;;9.90;99.90;;;10.03;63.30;97675.84;5040450;28;20424;-82
2023/11/04 03:16:22;;;;;;;2.25;0.70;;;9.90;99.90;;;9.95;63.00;97681.75;5073758;28;20048;-82
2023/11/04 03:18:49;;;;;;;1.85;0.70;;;9.90;99.90;;;9.98;62.89;97670.56;5073167;28;20052;-82
2023/11/04 03:21:17;;;;;;;3.25;0.98;;;9.90;99.90;;;10.05;63.42;97676.34;5064068;28;20037;-82
2023/11/04 03:23:47;;;;;;;2.17;0.80;;;9.90;99.90;;;9.94;62.48;97678.28;5091278;28;20040;-82
2023/11/04 03:26:14;;;;;;;2.70;0.80;;;9.90;99.90;;;9.95;63.26;97671.09;5074090;28;20048;-82
2023/11/04 03:28:42;;;;;;;2.58;0.73;;;9.90;99.90;;;9.94;63.44;97675.63;5083666;28;20479;-82
2023/11/04 03:31:11;;;;;;;2.70;0.95;;;9.90;99.90;;;9.91;63.68;97675.41;5082778;28;20052;-82
2023/11/04 03:33:39;;;;;;;1.88;0.70;;;9.90;99.90;;;9.91;64.25;97660.22;5082521;28;20037;-82
2023/11/04 03:36:09;;;;;;;3.22;0.75;;;9.90;99.90;;;9.97;64.47;97671.63;5063798;28;20083;-82
2023/11/04 03:38:38;;;;;;;2.23;0.80;;;9.90;99.90;;;9.98;64.25;97665.22;5064528;28;20057;-82
2023/11/04 03:41:06;;;;;;;2.63;0.82;;;9.90;99.90;;;9.95;64.53;97655.13;5097077;28;20063;-82
2023/11/04 03:43:34;;;;;;;2.17;0.60;;;9.90;99.90;;;9.97;64.35;97653.78;5046319;28;20056;-82
2023/11/04 03:46:02;;;;;;;1.83;0.80;;;9.90;99.90;;;9.99;64.56;97642.84;5081059;28;20067;-82
2023/11/04 03:48:31;;;;;;;3.47;0.70;;;9.90;99.90;;;10.05;64.98;97660.38;5076815;28;20040;-82
2023/11/04 03:50:59;;;;;;;2.60;0.73;;;9.90;99.90;;;9.99;63.99;97643.66;5081697;28;20044;-82
2023/11/04 03:53:29;;;;;;;2.50;0.73;;;9.90;99.90;;;9.94;64.26;97653.53;5085286;28;20059;-82
2023/11/04 03:55:56;;;;;;;1.97;0.80;;;9.90;99.90;;;10.04;64.70;97656.13;5084071;28;20096;-82
2023/11/04 03:58:24;;;;;;;2.00;0.80;;;9.90;99.90;;;10.07;64.60;97651.06;5085740;28;20352;-82
2023/11/04 04:00:51;;;;;;;2.10;0.80;;;10.00;99.90;;;10.06;64.58;97643.34;5077218;28;20074;-82
2023/11/04 04:03:19;;;;;;;2.45;0.80;;;10.00;99.90;;;10.04;64.89;97640.16;5085569;28;20079;-82
2023/11/04 04:05:48;;;;;;;4.28;0.80;;;9.90;99.90;;;10.11;64.87;97645.19;5084356;28;20272;-83
2023/11/04 04:08:16;;;;;;;4.50;0.77;;;10.00;99.90;;;10.13;64.38;97633.16;5084146;28;20039;-82
2023/11/04 04:10:44;;;;;;;3.22;0.93;;;10.00;99.90;;;10.10;64.91;97631.03;5085285;28;20044;-82
2023/11/04 04:13:11;;;;;;;3.58;0.70;;;10.00;99.90;;;10.09;64.55;97624.13;5084048;28;20127;-82
2023/11/04 04:15:39;;;;;;;2.28;0.80;;;10.00;99.90;;;10.09;64.77;97621.47;5084175;28;20063;-82
2023/11/04 04:18:06;;;;;;;2.30;0.70;;;10.00;99.90;;;10.12;64.74;97628.13;5079599;28;20076;-82
2023/11/04 04:20:34;;;;;;;2.25;0.70;;;10.00;99.90;;;10.15;64.93;97622.22;5049138;28;20045;-83
2023/11/04 04:23:03;;;;;;;3.40;1.02;;;10.00;99.90;;;10.07;64.81;97618.31;5063919;28;20044;-82
2023/11/04 04:25:31;;;;;;;3.50;0.90;;;10.00;99.90;;;10.09;64.71;97621.47;5064568;28;20484;-82
2023/11/04 04:27:58;;;;;;;3.80;0.77;;;10.00;99.90;;;10.11;64.86;97616.69;5065440;28;20041;-82
2023/11/04 04:30:26;;;;;;;4.32;0.98;;;10.00;99.90;;;10.12;65.16;97617.47;5064409;28;20445;-82
2023/11/04 04:32:53;;;;;;;2.33;0.98;;;10.00;99.90;;;10.10;64.63;97609.75;5064289;28;20048;-82
2023/11/04 04:35:21;;;;;;;3.13;0.80;;;10.00;99.90;;;10.12;64.94;97602.28;5066368;28;20033;-82
2023/11/04 04:37:48;;;;;;;3.50;1.20;;;10.00;99.90;;;10.14;65.02;97605.47;5085342;28;20504;-83
2023/11/04 04:40:17;;;;;;;2.30;0.80;;;10.00;99.90;;;10.06;65.00;97603.41;5057627;28;20112;-83
2023/11/04 04:42:44;;;;;;;2.15;0.95;;;10.00;99.90;;;10.07;65.02;97605.00;5063709;28;20045;-82
2023/11/04 04:45:13;;;;;;;4.82;0.90;;;10.00;99.90;;;10.12;65.30;97604.16;5065220;28;20060;-82
2023/11/04 04:47:41;;;;;;;1.85;0.80;;;10.00;99.90;;;10.20;65.42;97611.53;5064499;28;20546;-82
2023/11/04 04:50:08;;;;;;;2.45;0.90;;;10.00;99.90;;;10.22;65.94;97606.75;5062588;28;20116;-82
2023/11/04 04:52:36;;;;;;;2.80;0.93;;;10.10;99.90;;;10.14;66.10;97605.47;5065409;28;20040;-82
2023/11/04 04:55:04;;;;;;;3.50;0.80;;;10.00;99.90;;;10.15;66.44;97595.59;5082372;28;20085;-83
2023/11/04 04:57:34;;;;;;;2.17;0.80;;;10.00;99.90;;;10.20;66.72;97604.38;5082638;28;20072;-83
2023/11/04 05:00:04;;;;;;;3.10;0.90;;;10.00;99.90;;;10.13;66.67;97595.88;5064931;28;20412;-83
2023/11/04 05:02:32;;;;;;;3.35;0.77;;;10.00;99.90;;;10.19;66.42;97593.97;5080408;28;20135;-82
2023/11/04 05:04:59;;;;;;;4.63;0.90;;;10.10;99.90;;;10.23;66.31;97597.66;5064298;28;20048;-82
2023/11/04 05:07:28;;;;;;;2.78;0.88;;;10.10;99.90;;;10.20;66.22;97587.56;5081065;28;20079;-82
2023/11/04 05:09:57;;;;;;;3.92;1.10;;;10.00;99.90;;;10.17;65.94;97590.81;5060365;28;20041;-83
2023/11/04 05:12:24;;;;;;;2.72;0.90;;;10.00;99.90;;;10.09;66.13;97589.53;5061420;28;20104;-83
2023/11/04 05:14:53;;;;;;;2.15;0.70;;;10.00;99.90;;;10.15;65.99;97585.75;5063009;28;20474;-83
2023/11/04 05:17:21;;;;;;;1.73;0.70;;;10.00;99.90;;;10.10;65.79;97588.44;5080130;28;20108;-82
2023/11/04 05:19:50;;;;;;;2.65;0.90;;;10.00;99.90;;;10.06;65.89;97582.09;5081149;28;20037;-82
2023/11/04 05:22:18;;;;;;;3.10;0.80;;;10.00;99.90;;;10.11;66.09;97574.06;5081548;28;20052;-82
2023/11/04 05:24:46;;;;;;;3.22;0.77;;;10.00;99.90;;;10.13;66.31;97577.25;5098910;28;20037;-82
2023/11/04 05:27:14;;;;;;;4.47;1.30;;;10.00;99.90;;;10.18;66.00;97573.75;5081177;28;20070;-83
2023/11/04 05:29:43;;;;;;;1.98;0.88;;;10.00;99.90;;;10.11;65.62;97554.66;5077051;28;20076;-82
2023/11/04 05:32:12;;;;;;;3.10;0.90;;;10.10;99.90;;;10.10;66.06;97561.81;5062019;28;20575;-82
2023/11/04 05:34:40;;;;;;;2.40;1.02;;;10.00;99.90;;;10.03;66.11;97561.34;5063122;28;20090;-82
2023/11/04 05:37:09;;;;;;;3.55;0.90;;;10.00;99.90;;;10.09;66.57;97546.91;5045511;28;20083;-82
2023/11/04 05:39:36;;;;;;;3.55;0.98;;;10.00;99.90;;;10.18;66.22;97553.22;5078331;28;20090;-82
2023/11/04 05:42:05;;;;;;;4.03;0.90;;;10.10;99.90;;;10.19;66.02;97548.69;5075195;28;20094;-83
2023/11/04 05:44:33;;;;;;;3.75;0.90;;;10.10;99.90;;;10.12;65.93;97537.59;5065492;28;20499;-83
2023/11/04 05:47:00;;;;;;;4.03;1.17;;;10.00;99.90;;;10.17;66.09;97542.88;5072277;28;20053;-83
2023/11/04 05:49:29;;;;;;;3.42;0.80;;;10.10;99.90;;;10.17;66.26;97542.88;5065186;28;20094;-82
2023/11/04 05:51:57;;;;;;;2.60;0.82;;;10.10;99.90;;;10.17;66.04;97540.19;5081047;28;20044;-87
2023/11/04 05:54:25;;;;;;;2.03;0.70;;;10.10;99.90;;;10.11;66.21;97523.47;5084412;28;20049;-83
2023/11/04 05:56:52;;;;;;;2.70;0.90;;;10.10;99.90;;;10.03;66.38;97532.06;5076567;28;20049;-83
2023/11/04 05:59:20;;;;;;;2.60;0.90;;;10.00;99.90;;;10.06;66.71;97529.66;5058231;28;20064;-84
2023/11/04 06:01:48;;;;;;;2.38;0.80;;;10.00;99.90;;;10.13;66.44;97526.66;5056361;28;20500;-84
2023/11/04 06:04:16;;;;;;;2.17;0.88;;;10.10;99.90;;;10.11;66.36;97525.34;5037873;28;20507;-84
2023/11/04 06:06:45;;;;;;;2.20;0.82;;;10.00;99.90;;;10.05;66.72;97521.91;5058721;28;20052;-84
2023/11/04 06:09:13;;;;;;;2.17;0.70;;;10.00;99.90;;;10.09;66.87;97522.94;5078332;28;20127;-83
2023/11/04 06:11:41;;;;;;;1.95;0.80;;;10.00;99.90;;;10.14;66.64;97514.13;5062657;28;20056;-84
2023/11/04 06:14:08;;;;;;;4.00;1.38;;;10.00;99.90;;;10.19;66.88;97519.41;5078339;28;20056;-84
2023/11/04 06:16:36;;;;;;;2.72;0.80;;;10.10;99.90;;;10.18;66.53;97515.94;5044724;28;20044;-84
2023/11/04 06:19:05;;;;;;;3.08;1.05;;;10.10;99.90;;;10.14;66.86;97508.78;5074517;28;20045;-83
2023/11/04 06:21:33;;;;;;;2.03;0.80;;;10.00;99.90;;;10.15;66.83;97494.41;5058299;28;20076;-84
2023/11/04 06:24:03;;;;;;;2.65;0.80;;;10.00;99.90;;;10.15;66.62;97503.22;5060691;28;20067;-83
2023/11/04 06:26:30;;;;;;;2.92;0.90;;;10.00;99.90;;;10.18;66.94;97494.63;5073247;28;20049;-84
2023/11/04 06:28:58;;;;;;;3.10;0.75;;;10.00;99.90;;;10.19;66.70;97493.56;5057588;28;20045;-83
2023/11/04 06:31:26;;;;;;;4.60;0.80;;;10.00;99.90;;;10.17;66.79;97486.94;5077112;28;20045;-83
2023/11/04 06:33:54;;;;;;;2.45;0.90;;;10.00;99.90;;;10.19;66.94;97492.78;5063284;28;20045;-84
2023/11/04 06:36:22;;;;;;;5.72;0.90;;;10.00;99.90;;;10.22;66.77;97489.56;5063924;28;20056;-84
2023/11/04 06:38:50;;;;;;;2.53;0.80;;;10.10;99.90;;;10.18;66.74;97489.31;5062401;28;20136;-85
2023/11/04 06:41:19;;;;;;;2.58;0.77;;;10.10;99.90;;;10.10;66.85;97479.25;5067153;28;20581;-85
2023/11/04 06:43:48;;;;;;;2.28;0.90;;;10.00;99.90;;;10.17;67.51;97485.06;5078280;28;20477;-83
2023/11/04 06:46:17;;;;;;;2.22;1.00;;;10.10;99.90;;;10.18;66.93;97473.34;5075496;28;20048;-83
2023/11/04 06:48:45;;;;;;;2.05;0.95;;;10.10;99.90;;;10.15;66.77;97465.94;5056510;28;20044;-83
2023/11/04 06:51:18;;;;;;;2.78;0.68;;;10.00;99.90;;;10.04;67.23;97470.53;5055989;28;20053;-83
2023/11/04 06:53:46;;;;;;;2.30;0.80;;;10.00;99.90;;;10.06;66.91;97465.75;5057287;28;20045;-83
2023/11/04 06:56:14;;;;;;;1.90;0.90;;;10.00;99.90;;;10.03;67.24;97468.97;5041509;28;20040;-85
2023/11/04 06:58:43;;;;;;;2.22;0.90;;;10.00;99.90;;;10.06;67.48;97455.09;5055346;28;20416;-85
2023/11/04 07:01:15;;;;;;;3.25;0.88;;;10.00;99.90;;;10.07;67.37;97470.00;5077274;28;20500;-83
2023/11/04 07:03:45;;;;;;;4.40;0.82;;;10.00;99.90;;;10.09;67.12;97466.25;5069493;28;20114;-82
2023/11/04 07:06:14;;;;;;;3.10;0.90;;;10.00;99.90;;;10.11;67.28;97467.56;5060412;28;20037;-82
2023/11/04 07:08:42;;;;;;;2.50;0.77;;;10.00;99.90;;;10.06;67.27;97465.75;5060779;28;20102;-82
2023/11/04 07:11:13;;;;;;;1.58;0.60;;;10.00;99.90;;;10.08;67.36;97462.78;5064933;28;20046;-81
2023/11/04 07:13:43;;;;;;;1.45;0.70;;;10.00;99.90;;;10.11;67.12;97458.78;5079946;28;20052;-83
2023/11/04 07:16:12;;;;;;;1.70;0.60;;;10.00;99.90;;;10.15;66.82;97451.78;5080738;28;20135;-83
2023/11/04 07:18:39;;;;;;;2.45;0.90;;;10.00;99.90;;;10.12;67.25;97447.06;5082629;28;20499;-83
2023/11/04 07:21:07;;;;;;;3.08;0.77;;;10.00;99.90;;;10.17;67.45;97447.00;5084524;28;20049;-82
2023/11/04 07:23:35;;;;;;;3.38;0.90;;;10.00;99.90;;;10.13;67.03;97444.09;5084547;28;20048;-82
2023/11/04 07:26:03;;;;;;;3.47;0.65;;;10.00;99.90;;;10.15;67.40;97451.78;5089022;28;20522;-82
2023/11/04 07:28:35;;;;;;;3.50;0.60;;;10.10;99.90;;;10.24;67.27;97445.59;5088142;28;20044;-83
2023/11/04 07:31:05;;;;;;;2.85;0.80;;;10.10;99.90;;;10.21;67.39;97446.16;5050828;28;20381;-81
2023/11/04 07:33:33;;;;;;;2.03;0.70;;;10.10;99.90;;;10.17;67.59;97444.34;5052900;28;20080;-82
2023/11/04 07:36:00;;;;;;;1.67;0.60;;;10.10;99.90;;;10.15;67.62;97449.94;5071878;28;20029;-81
2023/11/04 07:38:28;;;;;;;1.38;0.60;;;10.10;99.90;;;10.22;67.62;97442.41;5055255;28;20048;-81
2023/11/04 07:40:55;;;;;;;2.72;0.77;;;10.20;99.90;;;10.23;67.46;97430.66;5090405;28;20072;-81
2023/11/04 07:43:23;;;;;;;3.38;0.60;;;10.20;99.90;;;10.29;67.61;97412.78;5082696;28;20087;-81
2023/11/04 07:45:50;;;;;;;3.08;0.80;;;10.20;99.90;;;10.30;67.61;97420.50;5071145;28;20116;-81
2023/11/04 07:48:19;;;;;;;3.10;1.00;;;10.30;99.90;;;10.39;67.35;97427.84;5069479;28;20053;-81
2023/11/04 07:50:47;;;;;;;3.25;0.70;;;10.30;99.90;;;10.42;67.31;97421.97;5093850;28;20044;-82
2023/11/04 07:53:15;;;;;;;3.15;0.82;;;10.30;99.90;;;10.36;66.93;97423.13;5091433;28;20597;-81
2023/11/04 07:55:44;;;;;;;1.67;0.70;;;10.40;99.90;;;10.37;67.18;97408.72;5093080;28;20044;-83
2023/11/04 07:58:11;;;;;;;1.88;0.75;;;10.40;99.90;;;10.39;67.50;97403.88;5093422;28;20045;-82
2023/11/04 08:00:39;;;;;;;2.35;0.65;;;10.40;99.90;;;10.40;67.22;97397.50;5092190;28;20049;-81
2023/11/04 08:03:06;;;;;;;2.25;0.80;;;10.40;99.90;;;10.43;67.37;97404.91;5086337;28;20044;-85
2023/11/04 08:05:36;;;;;;;3.17;0.90;;;10.40;99.90;;;10.41;67.52;97401.75;5092549;28;20048;-83
2023/11/04 08:08:06;;;;;;;4.10;0.70;;;10.40;99.90;;;10.43;67.45;97400.34;5092286;28;20049;-83
2023/11/04 08:10:35;;;;;;;1.67;0.60;;;10.40;99.90;;;10.47;67.67;97379.28;5073902;28;20044;-84
2023/11/04 08:13:03;;;;;;;2.40;0.77;;;10.50;99.90;;;10.53;67.77;97383.44;5093068;28;20064;-84
2023/11/04 08:15:31;;;;;;;2.67;0.60;;;10.50;99.90;;;10.61;67.78;97374.81;5086993;28;20075;-85
2023/11/04 08:17:59;;;;;;;1.27;0.60;;;10.60;99.90;;;10.64;67.62;97382.25;5069560;28;20057;-84
2023/11/04 08:20:27;;;;;;;2.70;0.80;;;10.70;99.90;;;10.63;67.63;97380.66;5082588;28;20384;-85
2023/11/04 08:22:57;;;;;;;4.68;0.60;;;10.70;99.90;;;10.63;67.33;97372.66;5088946;28;20460;-84
2023/11/04 08:25:26;;;;;;;2.15;0.70;;;10.60;99.90;;;10.63;67.91;97380.66;5083406;28;20063;-84
2023/11/04 08:27:53;;;;;;;4.32;1.00;;;10.70;99.90;;;10.62;68.71;97370.28;5099486;28;20135;-88
2023/11/04 08:30:20;;;;;;;3.33;0.68;;;10.70;99.90;;;10.57;69.14;97363.94;5084455;28;20522;-84
2023/11/04 08:32:50;;;;;;;2.47;0.80;;;10.70;99.90;;;10.58;69.72;97364.72;5084910;28;20041;-83
2023/11/04 08:35:18;;;;;;;2.53;0.82;;;10.60;99.90;;;10.56;69.98;97353.56;5068035;28;20053;-82
2023/11/04 08:37:45;;;;;;;3.10;1.10;;;10.60;99.90;;;10.56;69.79;97361.56;5075810;28;20049;-83
2023/11/04 08:40:14;;;;;;;2.53;0.80;;;10.60;99.90;;;10.60;69.87;97340.47;5099161;28;20037;-82
2023/11/04 08:42:42;;;;;;;1.65;0.70;;;10.60;99.90;;;10.65;69.40;97338.53;5086035;28;20579;-82
2023/11/04 08:45:14;;;;;;;4.80;0.70;;;10.60;99.90;;;10.65;69.62;97337.75;5087102;28;20044;-82
2023/11/04 08:47:42;;;;;;;4.05;0.90;;;10.70;99.90;;;10.66;69.57;97336.66;5088102;28;20055;-82
2023/11/04 08:50:10;;;;;;;2.72;0.90;;;10.70;99.90;;;10.69;69.87;97318.22;5070021;28;20411;-82
2023/11/04 08:52:39;;;;;;;2.25;0.80;;;10.70;99.90;;;10.75;69.11;97321.59;5072693;28;20076;-83
2023/11/04 08:55:10;;;;;;;1.58;0.65;;;10.70;99.90;;;10.80;69.35;97316.97;5032860;28;20056;-82
2023/11/04 08:57:39;;;;;;;2.65;0.90;;;10.80;99.90;;;10.78;69.12;97315.66;5063516;28;20136;-82
2023/11/04 09:00:15;;;;;;;2.00;0.80;;;10.80;99.90;;;10.78;69.32;97311.16;5080349;28;20135;-82
2023/11/04 09:02:53;;;;;;;4.25;0.95;;;10.80;99.90;;;10.82;69.29;97298.00;5064630;28;20076;-82
2023/11/04 09:05:21;;;;;;;5.25;1.10;;;10.80;99.90;;;10.82;68.52;97309.47;5029861;28;20122;-82
2023/11/04 09:07:49;;;;;;;2.50;0.80;;;10.80;99.90;;;10.85;69.00;97312.66;5061701;28;20052;-82
2023/11/04 09:10:19;;;;;;;2.92;0.80;;;10.90;99.90;;;10.87;68.83;97297.16;5077395;28;20049;-82
2023/11/04 09:12:47;;;;;;;3.88;0.95;;;10.90;99.90;;;10.95;68.94;97293.81;5081401;28;20075;-82
2023/11/04 09:15:15;;;;;;;2.90;1.00;;;10.90;99.90;;;10.97;69.00;97280.97;5081453;28;20135;-81
2023/11/04 09:17:43;;;;;;;6.78;0.82;;;11.00;99.90;;;11.01;68.88;97284.66;5083135;28;20067;-82
2023/11/04 09:20:11;;;;;;;3.22;1.17;;;11.00;99.90;;;11.02;68.48;97283.56;5083379;28;20040;-82
2023/11/04 09:22:40;;;;;;;4.03;1.00;;;11.10;99.90;;;11.04;68.79;97294.75;5066292;28;20070;-82
2023/11/04 09:25:09;;;;;;;2.88;0.93;;;11.10;99.90;;;11.09;68.73;97281.31;5080986;28;20032;-82
2023/11/04 09:27:37;;;;;;;4.85;1.00;;;11.10;99.90;;;11.09;67.94;97273.31;5088089;28;20048;-82
2023/11/04 09:30:09;;;;;;;2.53;0.95;;;11.20;99.90;;;11.15;68.01;97277.47;5079356;28;20092;-82
2023/11/04 09:32:39;;;;;;;3.13;0.88;;;11.20;99.90;;;11.22;68.25;97266.41;5080001;28;20052;-82
2023/11/04 09:35:08;;;;;;;3.20;1.02;;;11.20;99.90;;;11.19;67.77;97281.16;5083721;28;20040;-82
2023/11/04 09:37:36;;;;;;;2.88;1.00;;;11.30;99.90;;;11.19;67.81;97267.00;5061463;28;20052;-82
2023/11/04 09:40:04;;;;;;;2.60;1.02;;;11.20;99.90;;;11.10;67.81;97277.56;5062564;28;20041;-82
2023/11/04 09:42:34;;;;;;;3.17;1.10;;;11.20;99.90;;;11.12;67.66;97258.59;5094184;28;20066;-82
2023/11/04 09:45:02;;;;;;;2.85;1.10;;;11.20;99.90;;;11.11;67.99;97255.13;5082255;28;20045;-82
2023/11/04 09:47:32;;;;;;;3.00;0.80;;;11.10;99.90;;;11.10;68.25;97253.56;5084015;28;20044;-82
2023/11/04 09:50:00;;;;;;;3.97;1.10;;;11.10;99.90;;;11.13;68.14;97269.00;5085535;28;20045;-82
2023/11/04 09:52:29;;;;;;;4.25;1.10;;;11.10;99.90;;;11.14;67.40;97251.91;5080465;28;20109;-83
2023/11/04 09:54:59;;;;;;;4.63;1.20;;;11.10;99.90;;;11.14;67.59;97233.22;5066574;28;20048;-82
2023/11/04 09:57:28;;;;;;;2.33;1.00;;;11.10;99.90;;;11.20;67.23;97240.03;5084072;28;20048;-83
2023/11/04 09:59:56;;;;;;;4.80;1.38;;;11.20;99.90;;;11.21;66.77;97230.16;5082459;28;20074;-83
2023/11/04 10:02:24;;;;;;;2.60;1.00;;;11.20;99.90;;;11.24;67.17;97227.69;5083407;28;20068;-82
2023/11/04 10:04:53;;;;;;;3.78;1.40;;;11.30;99.90;;;11.26;67.23;97219.41;5081641;28;20076;-82
2023/11/04 10:07:20;;;;;;;7.28;1.40;;;11.30;99.90;;;11.27;67.28;97207.63;5081571;28;20135;-82
2023/11/04 10:09:49;;;;;;;4.35;1.20;;;11.30;99.90;;;11.29;66.74;97208.94;5083628;28;20416;-82
2023/11/04 10:12:16;;;;;;;2.72;1.20;;;11.30;99.90;;;11.29;66.70;97187.59;5084462;28;20149;-82
2023/11/04 10:14:43;;;;;;;4.53;1.25;;;11.30;99.90;;;11.29;66.43;97189.47;5065732;28;20045;-82
2023/11/04 10:17:12;;;;;;;2.50;1.05;;;11.30;99.90;;;11.24;66.30;97185.03;5083518;28;20047;-83
2023/11/04 10:19:39;;;;;;;5.30;1.27;;;11.30;99.90;;;11.22;65.60;97181.84;5082160;28;20071;-83
2023/11/04 10:22:10;;;;;;;4.72;1.27;;;11.30;99.90;;;11.20;64.70;97169.91;5076736;28;20048;-86
2023/11/04 10:24:39;;;;;;;3.90;1.50;;;11.30;99.90;;;11.23;64.75;97159.44;5082646;28;20056;-82
2023/11/04 10:27:06;;;;;;;2.92;1.20;;;11.30;99.90;;;11.28;64.38;97153.22;5096844;28;20062;-83